Wuming, China
Current Conditions -  °F | °C
As of 6:00 PM on Thursday 27 Nov 2014 (Local Time) from ZGNN Reporting Station
Scattered Clouds Scattered Clouds  
Wind Chill: 75°   Ceiling: Unl
Heat Index: 75°   Visibility: 6mi
Dew Point: 70°   Wind: 9mph
Humidity: 83%   Direction: 150°SSE
Pressure: 29.85"   Gusts: NA
Location:  23.17°N, 108.27°E
Report Text: ZGNN 271000Z 15004MPS 120V180 9999 SCT015 24/21 Q1011 NOSIG
Loading
Personal Weather Stations






























Interactive Weather Map New forecast layout! Learn more

10-Day Weather Forecast

Advertisements
Track Severe Weather on mobile